首页
METAR-TAF:

METAR-TAF

机场 :

明斯特奥斯纳布吕克国际机场

明斯特 / 奥斯纳布吕克, 德国

纬度: 52-08N, 经度: 007-42E, 海拔: 48米

当前天气观测

该预报发布于27分钟前的09:20 UTC
风速10节,风向西南,在西之间变化
温度 19°C
湿度 68%
气压 1008 hPa
能见度10公里或以上
散云层高于2200英尺

METAR: EDDG 010920Z 23010KT 190V260 9999 SCT022 19/13 Q1008 NOSIG

时间: 11:47 (09:47 UTC)

预报

该预报发布于4小时和47分钟前的05:00 UTC
预报有效从01日的 06点(UTC)到 02日的 06点(UTC)
风速4节,风向西南
能见度10公里或以上
多云层高于2000英尺
短暂存在
从 01日的 06点(UTC)到 01日的 09点(UTC)
多云层高于1000英尺
成为
从 01日的 07点(UTC)到 01日的 10点(UTC)
风速9节,风向西南
成为
从 01日的 10点(UTC)到 01日的 13点(UTC)
风速9节,风向西
短暂存在
从 01日的 12点(UTC)到 01日的 20点(UTC)
散云层高于1500英尺, 积雨云.
阵雨
几率 30% :
短暂存在
从 01日的 13点(UTC)到 01日的 19点(UTC)
多云层高于1500英尺, 积雨云.
雷暴, 雨
成为
从 01日的 18点(UTC)到 01日的 20点(UTC)
风速4节,风向西
几率 30% :
短暂存在
从 02日的 03点(UTC)到 02日的 06点(UTC)
能見度: 2000
轻雾

TAF: EDDG 010500Z 0106/0206 22004KT 9999 BKN020 TEMPO 0106/0109 BKN010 BECMG 0107/0110 22009KT BECMG 0110/0113 28009KT TEMPO 0112/0120 SHRA SCT015CB PROB30 TEMPO 0113/0119 TSRA BKN015CB BECMG 0118/0120 28004KT PROB30 TEMPO 0203/0206 2000 BR

超过4000个机场的气象观测和天气预报(METAR&TAF报告)。

可查询的气象台以黄色和红色小点在地图上表示。

将鼠标移到小点上方,可查看气象台名称。

然后点击查看天气观测和预报。

如需切换地图:点击带黑十字的绿色按钮放大地图;点击带横线的绿色按钮缩小地图;或者点击绿色箭头查看邻近地区的地图。


METAR-TAF: